Terminal Aerodrome Forecast
Issued by NWS Louisville, KY

Home | Current Version | Previous Version | Text Only | Print | Product List | Glossary On
Versions: 1 2 3 4 5 6 7 8 9 10 11 12 13 14
062
FTUS43 KLMK 102332
TAFSDF
TAF
KSDF 102332Z 1100/1206 26009KT P6SM SCT040 BKN080
     FM110400 30005KT P6SM BKN040
     FM111400 35005KT P6SM FEW040 BKN250=

USA.gov is the U.S. government's official web portal to all federal, state and local government web resources and services.